sensor_id;sensor_type;location;lat;lon;timestamp;temperature;humidity
13610;DHT22;6876;50.788;4.940;2023-07-24T00:01:17;18.60;99.90
13610;DHT22;6876;50.788;4.940;2023-07-24T00:04:05;18.60;99.90
13610;DHT22;6876;50.788;4.940;2023-07-24T00:06:53;18.70;99.90
13610;DHT22;6876;50.788;4.940;2023-07-24T00:09:40;18.60;99.90
13610;DHT22;6876;50.788;4.940;2023-07-24T00:12:28;18.70;99.90
13610;DHT22;6876;50.788;4.940;2023-07-24T00:15:15;18.70;99.90
13610;DHT22;6876;50.788;4.940;2023-07-24T00:18:02;18.70;99.90
13610;DHT22;6876;50.788;4.940;2023-07-24T00:20:49;18.70;99.90
13610;DHT22;6876;50.788;4.940;2023-07-24T00:23:38;18.70;99.90
13610;DHT22;6876;50.788;4.940;2023-07-24T00:26:25;18.70;99.90
13610;DHT22;6876;50.788;4.940;2023-07-24T00:29:13;18.70;99.90
13610;DHT22;6876;50.788;4.940;2023-07-24T00:32:00;18.70;99.90
13610;DHT22;6876;50.788;4.940;2023-07-24T00:34:47;18.70;99.90
13610;DHT22;6876;50.788;4.940;2023-07-24T00:37:35;18.70;99.90
13610;DHT22;6876;50.788;4.940;2023-07-24T00:40:23;18.80;99.90
13610;DHT22;6876;50.788;4.940;2023-07-24T00:43:10;18.80;99.90
13610;DHT22;6876;50.788;4.940;2023-07-24T00:45:58;18.80;99.90
13610;DHT22;6876;50.788;4.940;2023-07-24T00:48:45;18.80;99.90
13610;DHT22;6876;50.788;4.940;2023-07-24T00:51:33;18.80;99.90
13610;DHT22;6876;50.788;4.940;2023-07-24T00:54:21;18.80;99.90
13610;DHT22;6876;50.788;4.940;2023-07-24T00:57:10;18.80;99.90
13610;DHT22;6876;50.788;4.940;2023-07-24T00:59:58;18.80;99.90
13610;DHT22;6876;50.788;4.940;2023-07-24T01:02:45;18.80;99.90
13610;DHT22;6876;50.788;4.940;2023-07-24T01:05:32;18.80;99.90
13610;DHT22;6876;50.788;4.940;2023-07-24T01:08:19;18.80;99.90
13610;DHT22;6876;50.788;4.940;2023-07-24T01:11:12;18.80;99.90
13610;DHT22;6876;50.788;4.940;2023-07-24T01:14:08;18.80;99.90
13610;DHT22;6876;50.788;4.940;2023-07-24T01:16:59;18.80;99.90
13610;DHT22;6876;50.788;4.940;2023-07-24T01:19:48;18.80;99.90
13610;DHT22;6876;50.788;4.940;2023-07-24T01:22:39;18.80;99.90
13610;DHT22;6876;50.788;4.940;2023-07-24T01:25:31;18.80;99.90
13610;DHT22;6876;50.788;4.940;2023-07-24T01:28:22;18.80;99.90
13610;DHT22;6876;50.788;4.940;2023-07-24T01:31:09;18.80;99.90
13610;DHT22;6876;50.788;4.940;2023-07-24T01:33:57;18.80;99.90
13610;DHT22;6876;50.788;4.940;2023-07-24T01:36:45;18.90;99.90
13610;DHT22;6876;50.788;4.940;2023-07-24T01:39:32;18.80;99.90
13610;DHT22;6876;50.788;4.940;2023-07-24T01:42:20;18.70;99.90
13610;DHT22;6876;50.788;4.940;2023-07-24T01:45:09;18.70;99.90
13610;DHT22;6876;50.788;4.940;2023-07-24T01:47:57;18.60;99.90
13610;DHT22;6876;50.788;4.940;2023-07-24T01:50:44;18.60;99.90
13610;DHT22;6876;50.788;4.940;2023-07-24T01:53:31;18.50;99.90
13610;DHT22;6876;50.788;4.940;2023-07-24T01:56:19;18.50;99.90
13610;DHT22;6876;50.788;4.940;2023-07-24T01:59:06;18.50;99.90
13610;DHT22;6876;50.788;4.940;2023-07-24T02:01:54;18.50;99.90
13610;DHT22;6876;50.788;4.940;2023-07-24T02:04:42;18.50;99.90
13610;DHT22;6876;50.788;4.940;2023-07-24T02:07:29;18.40;99.90
13610;DHT22;6876;50.788;4.940;2023-07-24T02:10:16;18.40;99.90
13610;DHT22;6876;50.788;4.940;2023-07-24T02:13:04;18.40;99.90
13610;DHT22;6876;50.788;4.940;2023-07-24T02:15:53;18.40;99.90
13610;DHT22;6876;50.788;4.940;2023-07-24T02:18:42;18.40;99.90
13610;DHT22;6876;50.788;4.940;2023-07-24T02:21:29;18.40;99.90
13610;DHT22;6876;50.788;4.940;2023-07-24T02:24:17;18.40;99.90
13610;DHT22;6876;50.788;4.940;2023-07-24T02:27:05;18.40;99.90
13610;DHT22;6876;50.788;4.940;2023-07-24T02:29:52;18.40;99.90
13610;DHT22;6876;50.788;4.940;2023-07-24T02:32:40;18.40;99.90
13610;DHT22;6876;50.788;4.940;2023-07-24T02:35:28;18.40;99.90
13610;DHT22;6876;50.788;4.940;2023-07-24T02:38:16;18.40;99.90
13610;DHT22;6876;50.788;4.940;2023-07-24T02:41:03;18.40;99.90
13610;DHT22;6876;50.788;4.940;2023-07-24T02:43:50;18.30;99.90
13610;DHT22;6876;50.788;4.940;2023-07-24T02:46:37;18.30;99.90
13610;DHT22;6876;50.788;4.940;2023-07-24T02:49:25;18.30;99.90
13610;DHT22;6876;50.788;4.940;2023-07-24T02:52:13;18.30;99.90
13610;DHT22;6876;50.788;4.940;2023-07-24T02:55:00;18.30;99.90
13610;DHT22;6876;50.788;4.940;2023-07-24T02:57:48;18.20;99.90
13610;DHT22;6876;50.788;4.940;2023-07-24T03:00:35;18.20;99.90
13610;DHT22;6876;50.788;4.940;2023-07-24T03:03:22;18.20;99.90
13610;DHT22;6876;50.788;4.940;2023-07-24T03:06:09;18.20;99.90
13610;DHT22;6876;50.788;4.940;2023-07-24T03:08:58;18.20;99.90
13610;DHT22;6876;50.788;4.940;2023-07-24T03:11:45;18.10;99.90
13610;DHT22;6876;50.788;4.940;2023-07-24T03:14:32;18.20;99.90
13610;DHT22;6876;50.788;4.940;2023-07-24T03:17:20;18.20;99.90
13610;DHT22;6876;50.788;4.940;2023-07-24T03:20:15;18.20;99.90
13610;DHT22;6876;50.788;4.940;2023-07-24T03:23:02;18.20;99.90
13610;DHT22;6876;50.788;4.940;2023-07-24T03:25:51;18.20;99.90
13610;DHT22;6876;50.788;4.940;2023-07-24T03:28:38;18.20;99.90
13610;DHT22;6876;50.788;4.940;2023-07-24T03:31:25;18.20;99.90
13610;DHT22;6876;50.788;4.940;2023-07-24T03:34:12;18.20;99.90
13610;DHT22;6876;50.788;4.940;2023-07-24T03:36:59;18.20;99.90
13610;DHT22;6876;50.788;4.940;2023-07-24T03:39:47;18.10;99.90
13610;DHT22;6876;50.788;4.940;2023-07-24T03:42:36;18.10;99.90
13610;DHT22;6876;50.788;4.940;2023-07-24T03:45:23;18.10;99.90
13610;DHT22;6876;50.788;4.940;2023-07-24T03:48:10;18.10;99.90
13610;DHT22;6876;50.788;4.940;2023-07-24T03:50:58;18.10;99.90
13610;DHT22;6876;50.788;4.940;2023-07-24T03:53:46;18.10;99.90
13610;DHT22;6876;50.788;4.940;2023-07-24T03:56:33;18.10;99.90
13610;DHT22;6876;50.788;4.940;2023-07-24T03:59:22;18.10;99.90
13610;DHT22;6876;50.788;4.940;2023-07-24T04:02:09;18.10;99.90
13610;DHT22;6876;50.788;4.940;2023-07-24T04:04:56;18.10;99.90
13610;DHT22;6876;50.788;4.940;2023-07-24T04:07:44;18.10;99.90
13610;DHT22;6876;50.788;4.940;2023-07-24T04:13:18;18.10;99.90
13610;DHT22;6876;50.788;4.940;2023-07-24T04:16:07;18.00;99.90
13610;DHT22;6876;50.788;4.940;2023-07-24T04:18:54;18.00;99.90
13610;DHT22;6876;50.788;4.940;2023-07-24T04:21:41;18.10;99.90
13610;DHT22;6876;50.788;4.940;2023-07-24T04:24:28;18.10;99.90
13610;DHT22;6876;50.788;4.940;2023-07-24T04:27:16;18.10;99.90
13610;DHT22;6876;50.788;4.940;2023-07-24T04:30:03;18.10;99.90
13610;DHT22;6876;50.788;4.940;2023-07-24T04:32:52;18.20;99.90
13610;DHT22;6876;50.788;4.940;2023-07-24T04:35:39;18.20;99.90
13610;DHT22;6876;50.788;4.940;2023-07-24T04:38:26;18.20;99.90
13610;DHT22;6876;50.788;4.940;2023-07-24T04:41:14;18.20;99.90
13610;DHT22;6876;50.788;4.940;2023-07-24T04:44:01;18.20;99.90
13610;DHT22;6876;50.788;4.940;2023-07-24T04:46:48;18.30;99.90
13610;DHT22;6876;50.788;4.940;2023-07-24T04:49:37;18.30;99.90
13610;DHT22;6876;50.788;4.940;2023-07-24T04:52:25;18.40;99.90
13610;DHT22;6876;50.788;4.940;2023-07-24T04:55:12;18.40;99.90
13610;DHT22;6876;50.788;4.940;2023-07-24T04:57:59;18.60;99.90
13610;DHT22;6876;50.788;4.940;2023-07-24T05:00:46;18.60;99.90
13610;DHT22;6876;50.788;4.940;2023-07-24T05:03:33;18.60;99.90
13610;DHT22;6876;50.788;4.940;2023-07-24T05:06:22;18.40;99.90
13610;DHT22;6876;50.788;4.940;2023-07-24T05:09:09;18.20;99.90
13610;DHT22;6876;50.788;4.940;2023-07-24T05:11:56;18.00;99.90
13610;DHT22;6876;50.788;4.940;2023-07-24T05:14:44;18.00;99.90
13610;DHT22;6876;50.788;4.940;2023-07-24T05:17:31;18.00;99.90
13610;DHT22;6876;50.788;4.940;2023-07-24T05:20:18;18.10;99.90
13610;DHT22;6876;50.788;4.940;2023-07-24T05:23:07;18.00;99.90
13610;DHT22;6876;50.788;4.940;2023-07-24T05:25:57;18.00;99.90
13610;DHT22;6876;50.788;4.940;2023-07-24T05:28:46;18.00;99.90
13610;DHT22;6876;50.788;4.940;2023-07-24T05:31:34;18.10;99.90
13610;DHT22;6876;50.788;4.940;2023-07-24T05:34:22;18.10;99.90
13610;DHT22;6876;50.788;4.940;2023-07-24T05:37:09;18.10;99.90
13610;DHT22;6876;50.788;4.940;2023-07-24T05:39:58;18.20;99.90
13610;DHT22;6876;50.788;4.940;2023-07-24T05:42:45;18.20;99.90
13610;DHT22;6876;50.788;4.940;2023-07-24T05:45:33;18.20;99.90
13610;DHT22;6876;50.788;4.940;2023-07-24T05:48:21;18.20;99.90
13610;DHT22;6876;50.788;4.940;2023-07-24T05:51:08;18.30;99.90
13610;DHT22;6876;50.788;4.940;2023-07-24T05:53:55;18.20;99.90
13610;DHT22;6876;50.788;4.940;2023-07-24T05:56:44;18.20;99.90
13610;DHT22;6876;50.788;4.940;2023-07-24T05:59:31;18.20;99.90
13610;DHT22;6876;50.788;4.940;2023-07-24T06:02:18;18.20;99.90
13610;DHT22;6876;50.788;4.940;2023-07-24T06:05:07;18.10;99.90
13610;DHT22;6876;50.788;4.940;2023-07-24T06:07:55;18.10;99.90
13610;DHT22;6876;50.788;4.940;2023-07-24T06:10:42;18.00;99.90
13610;DHT22;6876;50.788;4.940;2023-07-24T06:13:31;18.00;99.90
13610;DHT22;6876;50.788;4.940;2023-07-24T06:16:18;17.90;99.90
13610;DHT22;6876;50.788;4.940;2023-07-24T06:19:06;17.90;99.90
13610;DHT22;6876;50.788;4.940;2023-07-24T06:21:53;17.80;99.90
13610;DHT22;6876;50.788;4.940;2023-07-24T06:24:41;17.90;99.90
13610;DHT22;6876;50.788;4.940;2023-07-24T06:27:28;17.90;99.90
13610;DHT22;6876;50.788;4.940;2023-07-24T06:30:17;17.90;99.90
13610;DHT22;6876;50.788;4.940;2023-07-24T06:33:04;17.90;99.90
13610;DHT22;6876;50.788;4.940;2023-07-24T06:35:51;18.10;99.90
13610;DHT22;6876;50.788;4.940;2023-07-24T06:38:39;18.30;99.90
13610;DHT22;6876;50.788;4.940;2023-07-24T06:41:28;18.90;99.90
13610;DHT22;6876;50.788;4.940;2023-07-24T06:44:15;18.90;99.90
13610;DHT22;6876;50.788;4.940;2023-07-24T06:47:04;19.10;99.90
13610;DHT22;6876;50.788;4.940;2023-07-24T06:49:51;20.20;99.90
13610;DHT22;6876;50.788;4.940;2023-07-24T06:52:39;21.50;99.90
13610;DHT22;6876;50.788;4.940;2023-07-24T06:55:26;22.10;99.90
13610;DHT22;6876;50.788;4.940;2023-07-24T06:58:13;22.20;1.00
13610;DHT22;6876;50.788;4.940;2023-07-24T07:01:02;21.50;1.00
13610;DHT22;6876;50.788;4.940;2023-07-24T07:03:53;20.90;92.70
13610;DHT22;6876;50.788;4.940;2023-07-24T07:06:40;20.40;99.90
13610;DHT22;6876;50.788;4.940;2023-07-24T07:09:27;20.20;99.90
13610;DHT22;6876;50.788;4.940;2023-07-24T07:12:15;20.00;99.90
13610;DHT22;6876;50.788;4.940;2023-07-24T07:15:03;20.10;99.90
13610;DHT22;6876;50.788;4.940;2023-07-24T07:17:50;20.70;99.90
13610;DHT22;6876;50.788;4.940;2023-07-24T07:20:40;21.40;99.90
13610;DHT22;6876;50.788;4.940;2023-07-24T07:23:31;21.80;23.10
13610;DHT22;6876;50.788;4.940;2023-07-24T07:26:18;21.90;1.00
13610;DHT22;6876;50.788;4.940;2023-07-24T07:29:05;22.10;1.00
13610;DHT22;6876;50.788;4.940;2023-07-24T07:31:53;22.00;1.00
13610;DHT22;6876;50.788;4.940;2023-07-24T07:34:40;21.90;1.00
13610;DHT22;6876;50.788;4.940;2023-07-24T07:37:28;21.50;1.00
13610;DHT22;6876;50.788;4.940;2023-07-24T07:40:16;21.20;86.00
13610;DHT22;6876;50.788;4.940;2023-07-24T07:43:03;20.70;99.90
13610;DHT22;6876;50.788;4.940;2023-07-24T07:45:50;20.30;99.90
13610;DHT22;6876;50.788;4.940;2023-07-24T07:48:37;20.10;99.90
13610;DHT22;6876;50.788;4.940;2023-07-24T07:51:25;19.90;99.90
13610;DHT22;6876;50.788;4.940;2023-07-24T07:54:14;19.80;99.90
13610;DHT22;6876;50.788;4.940;2023-07-24T07:57:01;19.90;99.90
13610;DHT22;6876;50.788;4.940;2023-07-24T07:59:50;20.10;99.90
13610;DHT22;6876;50.788;4.940;2023-07-24T08:02:37;20.30;99.90
13610;DHT22;6876;50.788;4.940;2023-07-24T08:05:25;20.40;99.90
13610;DHT22;6876;50.788;4.940;2023-07-24T08:08:13;20.30;99.90
13610;DHT22;6876;50.788;4.940;2023-07-24T08:11:05;20.30;99.90
13610;DHT22;6876;50.788;4.940;2023-07-24T08:13:52;20.10;99.90
13610;DHT22;6876;50.788;4.940;2023-07-24T08:16:40;19.90;99.90
13610;DHT22;6876;50.788;4.940;2023-07-24T08:19:28;19.80;99.90
13610;DHT22;6876;50.788;4.940;2023-07-24T08:22:15;19.70;99.90
13610;DHT22;6876;50.788;4.940;2023-07-24T08:25:03;19.70;99.90
13610;DHT22;6876;50.788;4.940;2023-07-24T08:27:52;19.80;99.90
13610;DHT22;6876;50.788;4.940;2023-07-24T08:30:39;20.20;99.90
13610;DHT22;6876;50.788;4.940;2023-07-24T08:33:27;20.40;99.90
13610;DHT22;6876;50.788;4.940;2023-07-24T08:36:14;20.40;99.90
13610;DHT22;6876;50.788;4.940;2023-07-24T08:39:01;20.40;99.90
13610;DHT22;6876;50.788;4.940;2023-07-24T08:41:49;20.30;99.90
13610;DHT22;6876;50.788;4.940;2023-07-24T08:44:38;20.30;99.90
13610;DHT22;6876;50.788;4.940;2023-07-24T08:47:25;20.30;99.90
13610;DHT22;6876;50.788;4.940;2023-07-24T08:50:13;20.10;99.90
13610;DHT22;6876;50.788;4.940;2023-07-24T08:53:01;20.00;99.90
13610;DHT22;6876;50.788;4.940;2023-07-24T08:55:49;20.00;99.90
13610;DHT22;6876;50.788;4.940;2023-07-24T08:58:36;19.90;99.90
13610;DHT22;6876;50.788;4.940;2023-07-24T09:01:26;19.90;99.90
13610;DHT22;6876;50.788;4.940;2023-07-24T09:04:14;20.00;99.90
13610;DHT22;6876;50.788;4.940;2023-07-24T09:07:01;20.10;99.90
13610;DHT22;6876;50.788;4.940;2023-07-24T09:09:48;20.20;99.90
13610;DHT22;6876;50.788;4.940;2023-07-24T09:12:37;20.00;99.90
13610;DHT22;6876;50.788;4.940;2023-07-24T09:15:24;19.90;99.90
13610;DHT22;6876;50.788;4.940;2023-07-24T09:18:13;19.80;99.90
13610;DHT22;6876;50.788;4.940;2023-07-24T09:21:01;19.80;99.90
13610;DHT22;6876;50.788;4.940;2023-07-24T09:23:49;19.90;99.90
13610;DHT22;6876;50.788;4.940;2023-07-24T09:26:46;19.80;99.90
13610;DHT22;6876;50.788;4.940;2023-07-24T09:29:34;19.60;99.90
13610;DHT22;6876;50.788;4.940;2023-07-24T09:32:23;19.30;99.90
13610;DHT22;6876;50.788;4.940;2023-07-24T09:35:18;18.60;99.90
13610;DHT22;6876;50.788;4.940;2023-07-24T09:38:07;17.80;99.90
13610;DHT22;6876;50.788;4.940;2023-07-24T09:40:56;17.60;99.90
13610;DHT22;6876;50.788;4.940;2023-07-24T09:43:43;17.50;99.90
13610;DHT22;6876;50.788;4.940;2023-07-24T09:46:31;17.50;99.90
13610;DHT22;6876;50.788;4.940;2023-07-24T09:49:18;17.60;99.90
13610;DHT22;6876;50.788;4.940;2023-07-24T09:52:09;17.70;99.90
13610;DHT22;6876;50.788;4.940;2023-07-24T09:55:04;18.00;99.90
13610;DHT22;6876;50.788;4.940;2023-07-24T09:57:53;18.20;99.90
13610;DHT22;6876;50.788;4.940;2023-07-24T10:00:41;18.20;99.90
13610;DHT22;6876;50.788;4.940;2023-07-24T10:03:28;18.10;99.90
13610;DHT22;6876;50.788;4.940;2023-07-24T10:06:16;18.30;99.90
13610;DHT22;6876;50.788;4.940;2023-07-24T10:09:05;18.40;99.90
13610;DHT22;6876;50.788;4.940;2023-07-24T10:11:54;18.50;99.90
13610;DHT22;6876;50.788;4.940;2023-07-24T10:14:42;18.70;99.90
13610;DHT22;6876;50.788;4.940;2023-07-24T10:17:36;18.60;99.90
13610;DHT22;6876;50.788;4.940;2023-07-24T10:20:23;18.80;99.90
13610;DHT22;6876;50.788;4.940;2023-07-24T10:23:16;19.00;99.90
13610;DHT22;6876;50.788;4.940;2023-07-24T10:26:06;19.10;99.90
13610;DHT22;6876;50.788;4.940;2023-07-24T10:28:54;18.90;99.90
13610;DHT22;6876;50.788;4.940;2023-07-24T10:31:41;19.10;99.90
13610;DHT22;6876;50.788;4.940;2023-07-24T10:34:39;19.10;99.90
13610;DHT22;6876;50.788;4.940;2023-07-24T10:37:36;19.10;99.90
13610;DHT22;6876;50.788;4.940;2023-07-24T10:40:24;19.00;99.90
13610;DHT22;6876;50.788;4.940;2023-07-24T10:43:14;19.00;99.90
13610;DHT22;6876;50.788;4.940;2023-07-24T10:46:04;18.80;99.90
13610;DHT22;6876;50.788;4.940;2023-07-24T10:48:51;18.70;99.90
13610;DHT22;6876;50.788;4.940;2023-07-24T10:51:39;19.10;99.90
13610;DHT22;6876;50.788;4.940;2023-07-24T10:54:26;19.60;99.90
13610;DHT22;6876;50.788;4.940;2023-07-24T10:57:13;19.90;99.90
13610;DHT22;6876;50.788;4.940;2023-07-24T11:00:02;20.10;99.90
13610;DHT22;6876;50.788;4.940;2023-07-24T11:02:52;20.20;99.90
13610;DHT22;6876;50.788;4.940;2023-07-24T11:05:40;20.70;99.90
13610;DHT22;6876;50.788;4.940;2023-07-24T11:08:27;21.00;52.70
13610;DHT22;6876;50.788;4.940;2023-07-24T11:11:15;21.20;46.90
13610;DHT22;6876;50.788;4.940;2023-07-24T11:14:03;21.50;1.00
13610;DHT22;6876;50.788;4.940;2023-07-24T11:16:52;21.70;1.00
13610;DHT22;6876;50.788;4.940;2023-07-24T11:19:39;22.20;1.00
13610;DHT22;6876;50.788;4.940;2023-07-24T11:22:26;22.10;1.00
13610;DHT22;6876;50.788;4.940;2023-07-24T11:25:14;21.50;1.00
13610;DHT22;6876;50.788;4.940;2023-07-24T11:28:01;21.90;41.70
13610;DHT22;6876;50.788;4.940;2023-07-24T11:30:50;22.60;1.00
13610;DHT22;6876;50.788;4.940;2023-07-24T11:33:39;22.80;1.00
13610;DHT22;6876;50.788;4.940;2023-07-24T11:36:27;22.90;1.00
13610;DHT22;6876;50.788;4.940;2023-07-24T11:39:21;22.70;1.00
13610;DHT22;6876;50.788;4.940;2023-07-24T11:42:08;22.40;1.00
13610;DHT22;6876;50.788;4.940;2023-07-24T11:44:55;22.10;1.00
13610;DHT22;6876;50.788;4.940;2023-07-24T11:47:44;21.60;1.00
13610;DHT22;6876;50.788;4.940;2023-07-24T11:50:42;21.30;1.00
13610;DHT22;6876;50.788;4.940;2023-07-24T11:53:30;21.10;1.00
13610;DHT22;6876;50.788;4.940;2023-07-24T11:56:19;21.20;1.00
13610;DHT22;6876;50.788;4.940;2023-07-24T11:59:11;20.90;1.00
13610;DHT22;6876;50.788;4.940;2023-07-24T12:01:59;20.70;1.00
13610;DHT22;6876;50.788;4.940;2023-07-24T12:04:46;20.60;1.00
13610;DHT22;6876;50.788;4.940;2023-07-24T12:07:35;20.40;1.00
13610;DHT22;6876;50.788;4.940;2023-07-24T12:10:26;20.20;1.00
13610;DHT22;6876;50.788;4.940;2023-07-24T12:13:14;19.80;1.00
13610;DHT22;6876;50.788;4.940;2023-07-24T12:16:01;19.70;1.00
13610;DHT22;6876;50.788;4.940;2023-07-24T12:18:49;19.50;18.40
13610;DHT22;6876;50.788;4.940;2023-07-24T12:21:36;19.60;99.90
13610;DHT22;6876;50.788;4.940;2023-07-24T12:24:24;19.90;1.00
13610;DHT22;6876;50.788;4.940;2023-07-24T12:27:12;20.10;1.00
13610;DHT22;6876;50.788;4.940;2023-07-24T12:29:59;20.50;1.00
13610;DHT22;6876;50.788;4.940;2023-07-24T12:32:46;21.10;1.00
13610;DHT22;6876;50.788;4.940;2023-07-24T12:35:34;21.50;1.00
13610;DHT22;6876;50.788;4.940;2023-07-24T12:38:21;21.50;1.00
13610;DHT22;6876;50.788;4.940;2023-07-24T12:41:09;21.50;99.90
13610;DHT22;6876;50.788;4.940;2023-07-24T12:43:57;21.10;1.00
13610;DHT22;6876;50.788;4.940;2023-07-24T12:46:44;21.30;1.00
13610;DHT22;6876;50.788;4.940;2023-07-24T12:49:31;21.40;1.00
13610;DHT22;6876;50.788;4.940;2023-07-24T12:52:18;21.60;99.90
13610;DHT22;6876;50.788;4.940;2023-07-24T12:55:06;21.70;99.90
13610;DHT22;6876;50.788;4.940;2023-07-24T12:57:55;21.60;99.90
13610;DHT22;6876;50.788;4.940;2023-07-24T13:00:42;21.50;99.90
13610;DHT22;6876;50.788;4.940;2023-07-24T13:03:30;21.30;1.00
13610;DHT22;6876;50.788;4.940;2023-07-24T13:06:17;21.30;99.90
13610;DHT22;6876;50.788;4.940;2023-07-24T13:09:04;21.60;1.00
13610;DHT22;6876;50.788;4.940;2023-07-24T13:11:52;21.80;1.00
13610;DHT22;6876;50.788;4.940;2023-07-24T13:14:41;21.90;1.00
13610;DHT22;6876;50.788;4.940;2023-07-24T13:17:29;21.80;1.00
13610;DHT22;6876;50.788;4.940;2023-07-24T13:20:16;22.00;1.00
13610;DHT22;6876;50.788;4.940;2023-07-24T13:23:04;22.10;1.00
13610;DHT22;6876;50.788;4.940;2023-07-24T13:25:52;22.40;1.00
13610;DHT22;6876;50.788;4.940;2023-07-24T13:28:39;22.50;99.90
13610;DHT22;6876;50.788;4.940;2023-07-24T13:31:28;22.40;1.00
13610;DHT22;6876;50.788;4.940;2023-07-24T13:34:15;22.20;99.90
13610;DHT22;6876;50.788;4.940;2023-07-24T13:37:06;21.90;1.00
13610;DHT22;6876;50.788;4.940;2023-07-24T13:39:53;21.60;99.90
13610;DHT22;6876;50.788;4.940;2023-07-24T13:42:40;21.50;99.90
13610;DHT22;6876;50.788;4.940;2023-07-24T13:45:27;21.40;65.00
13610;DHT22;6876;50.788;4.940;2023-07-24T13:48:16;21.50;1.00
13610;DHT22;6876;50.788;4.940;2023-07-24T13:51:03;21.60;1.00
13610;DHT22;6876;50.788;4.940;2023-07-24T13:53:51;21.80;99.90
13610;DHT22;6876;50.788;4.940;2023-07-24T13:56:39;22.00;1.00
13610;DHT22;6876;50.788;4.940;2023-07-24T13:59:27;22.10;1.00
13610;DHT22;6876;50.788;4.940;2023-07-24T14:02:14;22.10;88.00
13610;DHT22;6876;50.788;4.940;2023-07-24T14:05:03;22.20;99.90
13610;DHT22;6876;50.788;4.940;2023-07-24T14:07:50;22.00;1.00
13610;DHT22;6876;50.788;4.940;2023-07-24T14:10:37;21.60;99.90
13610;DHT22;6876;50.788;4.940;2023-07-24T14:13:25;21.40;99.90
13610;DHT22;6876;50.788;4.940;2023-07-24T14:16:12;21.30;99.90
13610;DHT22;6876;50.788;4.940;2023-07-24T14:18:59;21.30;1.00
13610;DHT22;6876;50.788;4.940;2023-07-24T14:21:48;21.20;1.00
13610;DHT22;6876;50.788;4.940;2023-07-24T14:24:35;21.00;1.00
13610;DHT22;6876;50.788;4.940;2023-07-24T14:27:22;20.90;1.00
13610;DHT22;6876;50.788;4.940;2023-07-24T14:30:10;21.30;1.00
13610;DHT22;6876;50.788;4.940;2023-07-24T14:32:57;21.50;1.00
13610;DHT22;6876;50.788;4.940;2023-07-24T14:35:44;21.30;1.00
13610;DHT22;6876;50.788;4.940;2023-07-24T14:38:33;21.40;99.90
13610;DHT22;6876;50.788;4.940;2023-07-24T14:41:20;21.40;99.90
13610;DHT22;6876;50.788;4.940;2023-07-24T14:44:07;21.50;1.00
13610;DHT22;6876;50.788;4.940;2023-07-24T14:46:55;21.60;1.00
13610;DHT22;6876;50.788;4.940;2023-07-24T14:49:42;21.50;1.00
13610;DHT22;6876;50.788;4.940;2023-07-24T14:52:29;21.50;99.90
13610;DHT22;6876;50.788;4.940;2023-07-24T14:55:18;21.70;99.90
13610;DHT22;6876;50.788;4.940;2023-07-24T14:58:05;21.70;99.90
13610;DHT22;6876;50.788;4.940;2023-07-24T15:00:52;21.80;1.00
13610;DHT22;6876;50.788;4.940;2023-07-24T15:03:39;21.90;99.90
13610;DHT22;6876;50.788;4.940;2023-07-24T15:06:27;21.80;1.00
13610;DHT22;6876;50.788;4.940;2023-07-24T15:09:14;21.80;1.00
13610;DHT22;6876;50.788;4.940;2023-07-24T15:12:03;21.70;99.90
13610;DHT22;6876;50.788;4.940;2023-07-24T15:14:50;21.70;1.00
13610;DHT22;6876;50.788;4.940;2023-07-24T15:17:38;21.60;99.90
13610;DHT22;6876;50.788;4.940;2023-07-24T15:20:25;21.40;27.30
13610;DHT22;6876;50.788;4.940;2023-07-24T15:23:12;21.60;99.90
13610;DHT22;6876;50.788;4.940;2023-07-24T15:25:59;21.50;99.90
13610;DHT22;6876;50.788;4.940;2023-07-24T15:28:48;21.40;99.90
13610;DHT22;6876;50.788;4.940;2023-07-24T15:31:35;21.70;99.90
13610;DHT22;6876;50.788;4.940;2023-07-24T15:34:22;21.90;99.90
13610;DHT22;6876;50.788;4.940;2023-07-24T15:37:10;22.00;99.90
13610;DHT22;6876;50.788;4.940;2023-07-24T15:39:58;22.10;99.90
13610;DHT22;6876;50.788;4.940;2023-07-24T15:42:45;22.00;99.90
13610;DHT22;6876;50.788;4.940;2023-07-24T15:45:34;22.00;99.90
13610;DHT22;6876;50.788;4.940;2023-07-24T15:48:21;21.70;99.90
13610;DHT22;6876;50.788;4.940;2023-07-24T15:51:09;21.50;99.90
13610;DHT22;6876;50.788;4.940;2023-07-24T15:53:56;20.90;99.90
13610;DHT22;6876;50.788;4.940;2023-07-24T15:56:43;20.50;99.90
13610;DHT22;6876;50.788;4.940;2023-07-24T15:59:30;20.10;99.90
13610;DHT22;6876;50.788;4.940;2023-07-24T16:02:19;19.60;18.80
13610;DHT22;6876;50.788;4.940;2023-07-24T16:05:16;19.20;1.00
13610;DHT22;6876;50.788;4.940;2023-07-24T16:08:04;18.90;99.90
13610;DHT22;6876;50.788;4.940;2023-07-24T16:10:51;18.60;1.00
13610;DHT22;6876;50.788;4.940;2023-07-24T16:13:40;18.40;1.00
13610;DHT22;6876;50.788;4.940;2023-07-24T16:16:28;18.30;1.00
13610;DHT22;6876;50.788;4.940;2023-07-24T16:19:17;18.30;1.00
13610;DHT22;6876;50.788;4.940;2023-07-24T16:22:05;18.30;1.00
13610;DHT22;6876;50.788;4.940;2023-07-24T16:24:52;18.20;1.00
13610;DHT22;6876;50.788;4.940;2023-07-24T16:27:39;18.10;1.00
13610;DHT22;6876;50.788;4.940;2023-07-24T16:30:26;18.10;1.00
13610;DHT22;6876;50.788;4.940;2023-07-24T16:33:14;18.00;1.00
13610;DHT22;6876;50.788;4.940;2023-07-24T16:36:02;17.90;1.00
13610;DHT22;6876;50.788;4.940;2023-07-24T16:38:49;17.90;1.00
13610;DHT22;6876;50.788;4.940;2023-07-24T16:41:37;17.90;1.00
13610;DHT22;6876;50.788;4.940;2023-07-24T16:44:24;18.00;17.50
13610;DHT22;6876;50.788;4.940;2023-07-24T16:47:11;18.10;1.00
13610;DHT22;6876;50.788;4.940;2023-07-24T16:49:58;18.20;1.00
13610;DHT22;6876;50.788;4.940;2023-07-24T16:52:47;18.40;1.00
13610;DHT22;6876;50.788;4.940;2023-07-24T16:55:34;18.20;1.00
13610;DHT22;6876;50.788;4.940;2023-07-24T16:58:22;18.20;1.00
13610;DHT22;6876;50.788;4.940;2023-07-24T17:01:09;18.20;51.90
13610;DHT22;6876;50.788;4.940;2023-07-24T17:03:56;18.40;52.20
13610;DHT22;6876;50.788;4.940;2023-07-24T17:06:43;18.70;1.00
13610;DHT22;6876;50.788;4.940;2023-07-24T17:09:32;18.80;1.00
13610;DHT22;6876;50.788;4.940;2023-07-24T17:12:19;19.00;1.00
13610;DHT22;6876;50.788;4.940;2023-07-24T17:15:07;19.20;1.00
13610;DHT22;6876;50.788;4.940;2023-07-24T17:17:54;19.50;1.00
13610;DHT22;6876;50.788;4.940;2023-07-24T17:20:41;19.70;1.00
13610;DHT22;6876;50.788;4.940;2023-07-24T17:23:29;19.70;1.00
13610;DHT22;6876;50.788;4.940;2023-07-24T17:26:17;19.60;99.90
13610;DHT22;6876;50.788;4.940;2023-07-24T17:29:05;19.40;1.00
13610;DHT22;6876;50.788;4.940;2023-07-24T17:31:52;19.20;1.00
13610;DHT22;6876;50.788;4.940;2023-07-24T17:34:39;19.20;1.00
13610;DHT22;6876;50.788;4.940;2023-07-24T17:37:27;19.30;1.00
13610;DHT22;6876;50.788;4.940;2023-07-24T17:40:19;19.30;1.00
13610;DHT22;6876;50.788;4.940;2023-07-24T17:43:09;19.20;1.00
13610;DHT22;6876;50.788;4.940;2023-07-24T17:45:56;19.20;1.00
13610;DHT22;6876;50.788;4.940;2023-07-24T17:48:43;19.20;1.00
13610;DHT22;6876;50.788;4.940;2023-07-24T17:51:30;19.30;1.00
13610;DHT22;6876;50.788;4.940;2023-07-24T17:54:18;19.20;1.00
13610;DHT22;6876;50.788;4.940;2023-07-24T17:57:05;19.20;1.00
13610;DHT22;6876;50.788;4.940;2023-07-24T17:59:54;19.10;1.00
13610;DHT22;6876;50.788;4.940;2023-07-24T18:02:41;19.00;1.00
13610;DHT22;6876;50.788;4.940;2023-07-24T18:05:29;18.90;1.00